KISW/ISW METAR and TAF weather

Enter ICAO airport designator
Station Type Date Time Source
KISW METAR 2019/06/18 14:54 UTC NOAA

KISW 181454Z AUTO 28006KT 10SM SCT008 OVC047 19/17 A2996 RMK AO2 SLP142 60000 T01940167 58001


Station Type Date Time Source
KISW Decoded METAR 2019/06/18 14:54 UTC NOAA

WI RAPIDS ALEXANDER FIELD, WI, United States (KISW) 44-22N 89-50W 307M
Jun 18, 2019 - 10:54 AM EDT / 2019.06.18 1454 UTC
Wind: from the W (280 degrees) at 7 MPH (6 KT):0
Visibility: 10 mile(s):0
Sky conditions: overcast
Temperature: 66.9 F (19.4 C)
Dew Point: 62.1 F (16.7 C)
Relative Humidity: 84%
Pressure (altimeter): 29.96 in. Hg (1014 hPa)
Pressure tendency: 0.00 inches (0.1 hPa) lower than three hours ago
ob: KISW 181454Z AUTO 28006KT 10SM SCT008 OVC047 19/17 A2996 RMK AO2 SLP142 60000 T01940167 58001
cycle: 15

Station Type Date Time Source
KISW TAF UTC NOAA

Error!

Example: see airport list